Time;durP1;ratioP1;P1;durP2;ratioP2;P2;SDS_P1;SDS_P2;PMS_P1;PMS_P2;Temp;Humidity;BMP_temperature;BMP_pressure;BME280_temperature;BME280_humidity;BME280_pressure;Samples;Min_cycle;Max_cycle;Signal;HPM_P1;HPM_P2
2023/08/01 00:00:13;;;;;;;17.75;9.57;;;16.10;99.90;;;;;;7372859;19;20527;-68
2023/08/01 00:02:42;;;;;;;16.83;10.18;;;16.10;99.90;;;;;;7364971;19;20046;-68
2023/08/01 00:05:09;;;;;;;23.58;11.00;;;16.10;99.90;;;;;;7372604;19;20039;-67
2023/08/01 00:07:36;;;;;;;22.40;12.02;;;16.00;99.90;;;;;;7373119;19;20018;-68
2023/08/01 00:10:02;;;;;;;18.77;11.65;;;16.00;99.90;;;;;;7369438;19;20470;-68
2023/08/01 00:12:31;;;;;;;22.95;13.25;;;16.00;99.90;;;;;;7369963;19;20026;-68
2023/08/01 00:14:58;;;;;;;17.98;11.98;;;16.00;99.90;;;;;;7373441;19;20415;-68
2023/08/01 00:17:24;;;;;;;20.05;12.90;;;16.00;99.90;;;;;;7372841;19;20034;-68
2023/08/01 00:19:50;;;;;;;20.80;13.35;;;16.00;99.90;;;;;;7372931;19;20055;-68
2023/08/01 00:22:17;;;;;;;22.00;14.55;;;16.00;99.90;;;;;;7370426;19;20680;-68
2023/08/01 00:24:43;;;;;;;22.13;14.82;;;16.10;99.90;;;;;;7376382;19;20022;-67
2023/08/01 00:27:10;;;;;;;24.25;14.77;;;16.10;99.90;;;;;;7373840;19;20018;-68
2023/08/01 00:29:38;;;;;;;22.92;15.27;;;16.10;99.90;;;;;;7367274;19;20025;-68
2023/08/01 00:32:05;;;;;;;20.08;14.50;;;16.10;99.90;;;;;;7372596;19;20015;-68
2023/08/01 00:34:31;;;;;;;26.92;14.60;;;16.10;99.90;;;;;;7372595;19;20520;-67
2023/08/01 00:36:58;;;;;;;27.30;14.80;;;16.10;99.90;;;;;;7371907;19;20026;-68
2023/08/01 00:39:24;;;;;;;20.83;14.73;;;16.00;99.90;;;;;;7372173;19;20106;-67
2023/08/01 00:41:50;;;;;;;24.50;15.27;;;16.00;99.90;;;;;;7370124;19;20014;-59
2023/08/01 00:44:16;;;;;;;21.90;14.30;;;16.00;99.90;;;;;;7372065;19;20685;-58
2023/08/01 00:46:42;;;;;;;24.75;14.95;;;16.00;99.90;;;;;;7370901;19;20018;-58
2023/08/01 00:49:09;;;;;;;21.55;14.23;;;16.00;99.90;;;;;;7372939;19;20424;-58
2023/08/01 00:51:35;;;;;;;24.63;15.82;;;16.00;99.90;;;;;;7374224;19;20032;-58
2023/08/01 00:54:02;;;;;;;21.45;14.68;;;16.00;99.90;;;;;;7372464;19;20105;-59
2023/08/01 00:56:30;;;;;;;23.10;15.18;;;16.00;99.90;;;;;;7366688;19;20026;-59
2023/08/01 00:58:56;;;;;;;19.85;15.52;;;16.10;99.90;;;;;;7369698;19;20250;-68
2023/08/01 01:01:22;;;;;;;23.38;14.68;;;16.00;99.90;;;;;;7367533;19;20089;-68
2023/08/01 01:03:49;;;;;;;28.92;16.20;;;16.10;99.90;;;;;;7370708;19;20082;-68
2023/08/01 01:06:33;;;;;;;20.75;13.88;;;16.10;99.90;;;;;;7373387;19;20022;-67
2023/08/01 01:08:59;;;;;;;22.08;14.07;;;16.00;99.90;;;;;;7364532;19;20022;-67
2023/08/01 01:11:28;;;;;;;20.58;14.18;;;16.00;99.90;;;;;;7367747;19;20387;-67
2023/08/01 01:13:54;;;;;;;23.27;14.13;;;16.00;99.90;;;;;;7370395;19;20029;-68
2023/08/01 01:16:21;;;;;;;21.70;13.18;;;16.00;99.90;;;;;;7370464;19;20033;-67
2023/08/01 01:18:48;;;;;;;21.88;12.38;;;16.00;99.90;;;;;;7369162;19;20054;-67
2023/08/01 01:21:14;;;;;;;19.55;11.95;;;16.00;99.90;;;;;;7367671;19;20422;-68
2023/08/01 01:23:41;;;;;;;22.08;11.18;;;16.00;99.90;;;;;;7369914;19;20018;-68
2023/08/01 01:26:09;;;;;;;22.35;10.80;;;15.90;99.90;;;;;;7371855;19;20011;-67
2023/08/01 01:28:37;;;;;;;20.75;11.55;;;15.90;99.90;;;;;;7372808;19;20043;-68
2023/08/01 01:31:04;;;;;;;19.35;11.32;;;16.00;99.90;;;;;;7374560;19;20046;-68
2023/08/01 01:33:30;;;;;;;21.90;11.95;;;16.00;99.90;;;;;;7368428;19;20014;-67
2023/08/01 01:35:57;;;;;;;19.48;11.88;;;16.00;99.90;;;;;;7368613;19;20022;-68
2023/08/01 01:38:23;;;;;;;16.00;11.55;;;16.00;99.90;;;;;;7365201;19;20023;-67
2023/08/01 01:40:49;;;;;;;22.63;10.90;;;16.00;99.90;;;;;;7370118;19;20014;-68
2023/08/01 01:43:16;;;;;;;14.60;10.15;;;16.00;99.90;;;;;;7364325;19;20098;-68
2023/08/01 01:45:42;;;;;;;16.27;9.93;;;16.00;99.90;;;;;;7370304;19;20025;-67
2023/08/01 01:48:09;;;;;;;17.13;11.77;;;15.90;99.90;;;;;;7361134;19;20371;-67
2023/08/01 01:50:35;;;;;;;16.77;10.23;;;15.90;99.90;;;;;;7365657;19;20932;-67
2023/08/01 01:53:01;;;;;;;14.38;10.65;;;15.90;99.90;;;;;;7367698;19;20584;-67
2023/08/01 01:55:27;;;;;;;15.55;9.73;;;15.90;99.90;;;;;;7367165;19;20015;-68
2023/08/01 01:57:54;;;;;;;17.08;10.15;;;15.90;99.90;;;;;;7367203;19;20037;-67
2023/08/01 02:00:20;;;;;;;17.98;10.35;;;15.90;99.90;;;;;;7365575;19;20022;-68
2023/08/01 02:02:47;;;;;;;16.08;11.13;;;15.90;99.90;;;;;;7365666;19;20323;-67
2023/08/01 02:05:13;;;;;;;16.25;11.38;;;15.80;99.90;;;;;;7362835;19;20035;-68
2023/08/01 02:07:40;;;;;;;17.50;10.82;;;15.80;99.90;;;;;;7370694;19;20478;-67
2023/08/01 02:10:07;;;;;;;15.05;8.55;;;15.80;99.90;;;;;;7366581;19;20014;-66
2023/08/01 02:12:35;;;;;;;15.20;8.32;;;15.80;99.90;;;;;;7369292;19;20018;-67
2023/08/01 02:15:02;;;;;;;15.70;8.73;;;15.80;99.90;;;;;;7365679;19;20014;-67
2023/08/01 02:17:30;;;;;;;20.13;8.45;;;15.70;99.90;;;;;;7371840;19;20575;-67
2023/08/01 02:19:56;;;;;;;17.55;8.63;;;15.60;99.90;;;;;;7363752;19;20014;-68
2023/08/01 02:22:25;;;;;;;13.82;7.68;;;15.60;99.90;;;;;;7366818;19;20037;-67
2023/08/01 02:24:52;;;;;;;15.23;8.38;;;15.50;99.90;;;;;;7365640;19;20018;-67
2023/08/01 02:27:18;;;;;;;14.23;7.38;;;15.50;99.90;;;;;;7369473;19;20486;-67
2023/08/01 02:29:44;;;;;;;11.05;7.97;;;15.40;99.90;;;;;;7366794;19;20018;-67
2023/08/01 02:32:12;;;;;;;15.25;8.30;;;15.30;99.90;;;;;;7365693;19;20503;-67
2023/08/01 02:34:39;;;;;;;12.15;8.73;;;15.30;99.90;;;;;;7369082;19;20457;-67
2023/08/01 02:37:05;;;;;;;16.58;10.30;;;15.20;99.90;;;;;;7364322;19;20029;-67
2023/08/01 02:39:32;;;;;;;18.88;13.18;;;15.20;99.90;;;;;;7365330;19;20019;-67
2023/08/01 02:41:58;;;;;;;22.38;14.05;;;15.10;99.90;;;;;;7365794;19;20052;-67
2023/08/01 02:44:25;;;;;;;21.52;15.60;;;15.10;99.90;;;;;;7364474;19;20018;-67
2023/08/01 02:46:51;;;;;;;22.45;16.63;;;15.10;99.90;;;;;;7369275;19;20029;-67
2023/08/01 02:49:17;;;;;;;22.45;16.23;;;15.10;99.90;;;;;;7354192;19;20025;-67
2023/08/01 02:51:43;;;;;;;30.50;16.73;;;15.20;99.90;;;;;;7366539;19;20018;-66
2023/08/01 02:54:09;;;;;;;26.20;16.58;;;15.20;99.90;;;;;;7366269;19;20443;-67
2023/08/01 02:56:40;;;;;;;26.20;16.35;;;15.30;99.90;;;;;;7369396;19;20019;-67
2023/08/01 02:59:08;;;;;;;26.90;14.35;;;15.30;99.90;;;;;;7368235;19;20409;-67
2023/08/01 03:01:38;;;;;;;25.38;14.45;;;15.30;99.90;;;;;;7365882;19;20459;-67
2023/08/01 03:04:06;;;;;;;21.20;12.38;;;15.40;99.90;;;;;;7367792;19;20031;-67
2023/08/01 03:06:33;;;;;;;25.30;13.30;;;15.30;99.90;;;;;;7365898;19;20478;-67
2023/08/01 03:09:00;;;;;;;22.63;13.23;;;15.40;99.90;;;;;;7371129;19;20094;-67
2023/08/01 03:11:26;;;;;;;25.60;13.45;;;15.40;99.90;;;;;;7362676;19;20062;-67
2023/08/01 03:13:52;;;;;;;22.45;12.93;;;15.40;99.90;;;;;;7365979;19;20018;-67
2023/08/01 03:16:19;;;;;;;19.15;12.38;;;15.30;99.90;;;;;;7371337;19;20022;-67
2023/08/01 03:18:45;;;;;;;24.77;12.32;;;15.30;99.90;;;;;;7374007;19;20037;-67
2023/08/01 03:21:11;;;;;;;26.02;12.63;;;15.30;99.90;;;;;;7367120;19;20358;-67
2023/08/01 03:23:38;;;;;;;23.63;11.40;;;15.20;99.90;;;;;;7367955;19;20014;-57
2023/08/01 03:26:05;;;;;;;24.05;11.63;;;15.20;99.90;;;;;;7372843;19;20059;-58
2023/08/01 03:28:31;;;;;;;18.85;11.13;;;15.20;99.90;;;;;;7377017;19;20388;-58
2023/08/01 03:30:57;;;;;;;24.15;11.75;;;15.20;99.90;;;;;;7372053;19;20090;-58
2023/08/01 03:33:24;;;;;;;22.75;11.02;;;15.20;99.90;;;;;;7375167;19;20086;-57
2023/08/01 03:35:50;;;;;;;17.35;9.65;;;15.30;99.90;;;;;;7369894;19;20020;-58
2023/08/01 03:38:17;;;;;;;18.92;9.43;;;15.20;99.90;;;;;;7375579;19;20445;-58
2023/08/01 03:40:43;;;;;;;20.48;10.00;;;15.20;99.90;;;;;;7368339;19;20041;-58
2023/08/01 03:43:10;;;;;;;17.10;8.73;;;15.20;99.90;;;;;;7367733;19;20506;-58
2023/08/01 03:45:36;;;;;;;13.10;7.40;;;15.20;99.90;;;;;;7370386;19;20025;-58
2023/08/01 03:48:02;;;;;;;12.20;6.78;;;15.20;99.90;;;;;;7373921;19;20029;-58
2023/08/01 03:50:29;;;;;;;11.55;5.95;;;15.10;99.90;;;;;;7373987;19;20078;-58
2023/08/01 03:52:56;;;;;;;11.70;4.70;;;15.20;99.90;;;;;;7377066;19;20480;-58
2023/08/01 03:55:22;;;;;;;7.43;3.83;;;15.10;99.90;;;;;;7374861;19;20807;-58
2023/08/01 03:57:48;;;;;;;10.93;3.88;;;15.00;99.90;;;;;;7378019;19;20023;-57
2023/08/01 04:00:17;;;;;;;8.23;3.45;;;15.00;99.90;;;;;;7373177;19;20474;-57
2023/08/01 04:02:44;;;;;;;5.95;2.92;;;15.00;99.90;;;;;;7371161;19;20081;-58
2023/08/01 04:05:11;;;;;;;4.88;2.65;;;14.90;99.90;;;;;;7371983;19;20094;-59
2023/08/01 04:07:38;;;;;;;8.95;2.55;;;14.90;99.90;;;;;;7374362;19;20478;-58
2023/08/01 04:10:05;;;;;;;6.57;2.33;;;14.80;99.90;;;;;;7369774;19;20029;-59
2023/08/01 04:12:33;;;;;;;4.65;2.00;;;14.80;99.90;;;;;;7373533;19;20497;-58
2023/08/01 04:15:02;;;;;;;7.50;2.92;;;14.80;99.90;;;;;;7372378;19;20507;-59
2023/08/01 04:17:29;;;;;;;6.38;2.50;;;14.80;99.90;;;;;;7374592;19;20018;-59
2023/08/01 04:19:56;;;;;;;5.22;2.63;;;14.70;99.90;;;;;;7371480;19;20021;-59
2023/08/01 04:22:22;;;;;;;4.97;2.28;;;14.70;99.90;;;;;;7375992;19;20394;-59
2023/08/01 04:24:48;;;;;;;6.07;2.60;;;14.70;99.90;;;;;;7369805;19;20088;-58
2023/08/01 04:27:15;;;;;;;6.65;2.42;;;14.60;99.90;;;;;;7372938;19;20632;-58
2023/08/01 04:29:41;;;;;;;6.03;2.30;;;14.60;99.90;;;;;;7375786;19;20037;-58
2023/08/01 04:32:07;;;;;;;7.13;2.30;;;14.60;99.90;;;;;;7373312;19;20469;-58
2023/08/01 04:34:34;;;;;;;7.07;2.20;;;14.60;99.90;;;;;;7377101;19;20202;-58
2023/08/01 04:37:01;;;;;;;5.78;2.40;;;14.50;99.90;;;;;;7377579;19;20018;-58
2023/08/01 04:39:27;;;;;;;5.95;2.90;;;14.50;99.90;;;;;;7374321;19;20364;-58
2023/08/01 04:41:53;;;;;;;6.18;2.30;;;14.50;99.90;;;;;;7373133;19;20124;-58
2023/08/01 04:44:20;;;;;;;7.95;2.80;;;14.50;99.90;;;;;;7368493;19;20471;-59
2023/08/01 04:46:48;;;;;;;5.28;2.60;;;14.40;99.90;;;;;;7374759;19;20018;-58
2023/08/01 04:49:15;;;;;;;7.18;2.70;;;14.40;99.90;;;;;;7375585;19;20047;-58
2023/08/01 04:51:41;;;;;;;8.23;3.00;;;14.40;99.90;;;;;;7370798;19;20659;-58
2023/08/01 04:54:08;;;;;;;6.20;3.33;;;14.40;99.90;;;;;;7369007;19;20462;-58
2023/08/01 04:56:34;;;;;;;5.63;2.45;;;14.40;99.90;;;;;;7372384;19;20055;-58
2023/08/01 04:59:01;;;;;;;6.45;2.55;;;14.40;99.90;;;;;;7371707;19;20015;-58
2023/08/01 05:01:28;;;;;;;6.28;2.40;;;14.40;99.90;;;;;;7373128;19;20039;-58
2023/08/01 05:03:54;;;;;;;7.28;2.40;;;14.50;99.90;;;;;;7375013;19;20331;-58
2023/08/01 05:06:21;;;;;;;4.97;2.38;;;14.50;99.90;;;;;;7370531;19;20018;-58
2023/08/01 05:08:47;;;;;;;5.80;2.80;;;14.60;99.90;;;;;;7371975;19;20695;-66
2023/08/01 05:11:13;;;;;;;7.93;2.90;;;14.70;99.90;;;;;;7372022;19;20019;-58
2023/08/01 05:13:39;;;;;;;6.97;3.10;;;14.80;99.90;;;;;;7373844;19;20516;-66
2023/08/01 05:16:06;;;;;;;5.78;3.45;;;14.90;99.90;;;;;;7370350;19;20022;-66
2023/08/01 05:18:32;;;;;;;8.15;3.25;;;14.90;99.90;;;;;;7373722;19;20022;-58
2023/08/01 05:20:58;;;;;;;9.75;3.88;;;14.90;99.90;;;;;;7370522;19;20019;-58
2023/08/01 05:23:25;;;;;;;5.35;3.30;;;15.00;99.90;;;;;;7369939;19;20441;-66
2023/08/01 05:25:51;;;;;;;6.50;3.45;;;15.10;99.90;;;;;;7368212;19;20065;-58
2023/08/01 05:28:17;;;;;;;5.13;2.63;;;15.20;99.90;;;;;;7368888;19;20039;-58
2023/08/01 05:30:43;;;;;;;5.82;3.53;;;15.20;99.90;;;;;;7370430;19;20494;-58
2023/08/01 05:33:09;;;;;;;8.05;3.63;;;15.20;99.90;;;;;;7369191;19;20043;-58
2023/08/01 05:35:36;;;;;;;7.40;3.80;;;15.20;99.90;;;;;;7366965;19;20439;-60
2023/08/01 05:38:03;;;;;;;6.82;4.10;;;15.20;99.90;;;;;;7369027;19;20018;-61
2023/08/01 05:40:29;;;;;;;8.45;3.85;;;15.20;99.90;;;;;;7369077;19;20019;-59
2023/08/01 05:42:56;;;;;;;7.35;3.80;;;15.30;99.90;;;;;;7374759;19;20587;-58
2023/08/01 05:45:22;;;;;;;7.20;3.83;;;15.20;99.90;;;;;;7371280;19;20015;-57
2023/08/01 05:47:48;;;;;;;8.32;4.35;;;15.20;99.90;;;;;;7374377;19;20439;-58
2023/08/01 05:50:14;;;;;;;8.43;3.97;;;15.20;99.90;;;;;;7370764;19;20014;-58
2023/08/01 05:52:41;;;;;;;9.50;3.97;;;15.20;99.90;;;;;;7374430;19;20018;-59
2023/08/01 05:55:08;;;;;;;7.55;5.10;;;15.20;99.90;;;;;;7372370;19;20018;-58
2023/08/01 05:57:34;;;;;;;8.48;4.20;;;15.30;99.90;;;;;;7373615;19;20018;-58
2023/08/01 06:00:01;;;;;;;6.97;4.13;;;15.30;99.90;;;;;;7373207;19;20018;-58
2023/08/01 06:02:27;;;;;;;8.55;3.67;;;15.30;99.90;;;;;;7370288;19;20019;-58
2023/08/01 06:04:53;;;;;;;7.75;3.95;;;15.30;99.90;;;;;;7370462;19;20098;-58
2023/08/01 06:07:22;;;;;;;8.52;3.75;;;15.30;99.90;;;;;;7364884;19;20023;-58
2023/08/01 06:09:51;;;;;;;4.35;2.92;;;15.30;99.90;;;;;;7369241;19;20025;-58
2023/08/01 06:12:18;;;;;;;7.05;2.60;;;15.30;99.90;;;;;;7371976;19;20014;-58
2023/08/01 06:14:46;;;;;;;5.85;2.67;;;15.30;99.90;;;;;;7370655;19;20482;-58
2023/08/01 06:17:12;;;;;;;5.00;2.38;;;15.40;99.90;;;;;;7367227;19;20018;-58
2023/08/01 06:19:38;;;;;;;5.95;2.75;;;15.40;99.90;;;;;;7371149;19;20018;-58
2023/08/01 06:22:05;;;;;;;7.70;2.58;;;15.60;99.90;;;;;;7372468;19;20022;-58
2023/08/01 06:24:31;;;;;;;4.25;2.28;;;15.80;99.90;;;;;;7372926;19;20027;-59
2023/08/01 06:26:57;;;;;;;4.25;2.30;;;16.00;99.90;;;;;;7373825;19;20510;-58
2023/08/01 06:29:24;;;;;;;7.32;2.85;;;16.00;99.90;;;;;;7369132;19;20590;-58
2023/08/01 06:31:51;;;;;;;5.05;2.67;;;16.00;99.90;;;;;;7373146;19;20018;-59
2023/08/01 06:34:17;;;;;;;5.55;2.67;;;16.00;99.90;;;;;;7371019;19;20018;-58
2023/08/01 06:36:44;;;;;;;8.57;4.57;;;16.00;99.90;;;;;;7364136;19;20147;-58
2023/08/01 06:39:11;;;;;;;7.63;3.33;;;16.10;99.90;;;;;;7367443;19;20018;-59
2023/08/01 06:41:37;;;;;;;6.50;2.60;;;16.10;99.90;;;;;;7371671;19;20015;-59
2023/08/01 06:44:03;;;;;;;5.63;2.47;;;16.10;99.90;;;;;;7368407;19;20474;-59
2023/08/01 06:46:30;;;;;;;5.95;2.53;;;16.20;99.90;;;;;;7369203;19;20022;-58
2023/08/01 06:48:56;;;;;;;4.97;2.20;;;16.10;99.90;;;;;;7373051;19;20472;-65
2023/08/01 06:51:22;;;;;;;6.75;2.50;;;16.20;99.90;;;;;;7380031;19;20356;-66
2023/08/01 06:53:49;;;;;;;6.70;2.20;;;16.40;99.90;;;;;;7375374;19;20078;-67
2023/08/01 06:56:15;;;;;;;6.05;2.33;;;16.50;99.90;;;;;;7376861;19;20088;-66
2023/08/01 06:58:41;;;;;;;6.03;2.38;;;16.60;99.90;;;;;;7374961;19;20485;-68
2023/08/01 07:01:07;;;;;;;4.60;2.00;;;16.60;99.90;;;;;;7375466;19;20693;-60
2023/08/01 07:03:34;;;;;;;4.50;2.60;;;16.60;99.90;;;;;;7379626;19;20022;-60
2023/08/01 07:06:00;;;;;;;6.97;2.20;;;16.50;99.90;;;;;;7377938;19;20014;-58
2023/08/01 07:08:33;;;;;;;4.93;2.08;;;16.50;99.90;;;;;;7378091;19;20489;-59
2023/08/01 07:11:02;;;;;;;4.28;1.70;;;16.90;99.90;;;;;;7378920;19;20032;-60
2023/08/01 07:13:28;;;;;;;6.35;2.22;;;17.20;99.90;;;;;;7375655;19;20086;-58
2023/08/01 07:15:55;;;;;;;6.60;2.17;;;17.20;99.90;;;;;;7374527;19;20054;-58
2023/08/01 07:18:21;;;;;;;4.35;1.75;;;17.30;99.90;;;;;;7375562;19;20350;-60
2023/08/01 07:20:47;;;;;;;6.43;2.10;;;17.40;99.90;;;;;;7373875;19;20760;-58
2023/08/01 07:23:13;;;;;;;4.50;1.88;;;17.40;99.90;;;;;;7378841;19;20011;-59
2023/08/01 07:25:40;;;;;;;5.00;1.75;;;17.60;99.90;;;;;;7376363;19;20014;-59
2023/08/01 07:28:06;;;;;;;6.15;2.17;;;17.80;99.90;;;;;;7377505;19;20066;-58
2023/08/01 07:30:32;;;;;;;3.95;1.92;;;17.70;99.90;;;;;;7376180;19;20070;-58
2023/08/01 07:32:58;;;;;;;6.57;1.95;;;17.80;99.90;;;;;;7376519;19;20018;-59
2023/08/01 07:35:25;;;;;;;8.32;2.30;;;17.70;99.90;;;;;;7375624;19;20671;-58
2023/08/01 07:37:52;;;;;;;5.93;2.00;;;17.60;99.90;;;;;;7375631;19;20082;-58
2023/08/01 07:40:18;;;;;;;5.75;1.88;;;17.40;99.90;;;;;;7369954;19;20097;-58
2023/08/01 07:42:46;;;;;;;6.95;2.33;;;17.30;99.90;;;;;;7376537;19;20481;-59
2023/08/01 07:45:12;;;;;;;6.05;2.35;;;17.30;99.90;;;;;;7374516;19;20054;-59
2023/08/01 07:47:38;;;;;;;8.27;1.95;;;17.10;99.90;;;;;;7379150;19;20471;-59
2023/08/01 07:50:05;;;;;;;6.38;2.60;;;17.00;99.90;;;;;;7377066;19;20018;-58
2023/08/01 07:52:31;;;;;;;4.63;2.00;;;16.90;99.90;;;;;;7374643;19;20386;-58
2023/08/01 07:54:58;;;;;;;6.05;2.10;;;16.90;99.90;;;;;;7377977;19;20030;-58
2023/08/01 07:57:24;;;;;;;6.35;2.42;;;16.80;99.90;;;;;;7375650;19;20113;-58
2023/08/01 07:59:50;;;;;;;6.65;2.15;;;16.80;99.90;;;;;;7374362;19;20442;-58
2023/08/01 08:02:17;;;;;;;5.95;2.40;;;16.60;99.90;;;;;;7376113;19;20094;-59
2023/08/01 08:04:43;;;;;;;7.22;2.60;;;16.50;99.90;;;;;;7376484;19;20018;-58
2023/08/01 08:07:09;;;;;;;7.78;2.10;;;16.40;99.90;;;;;;7369372;19;20018;-58
2023/08/01 08:09:35;;;;;;;6.05;2.30;;;16.30;99.90;;;;;;7370632;19;20401;-57
2023/08/01 08:12:02;;;;;;;10.27;2.75;;;16.30;99.90;;;;;;7375401;19;20022;-57
2023/08/01 08:14:29;;;;;;;10.48;3.03;;;16.30;99.90;;;;;;7373469;19;20276;-58
2023/08/01 08:16:56;;;;;;;9.20;3.25;;;16.30;99.90;;;;;;7374885;19;20506;-58
2023/08/01 08:19:24;;;;;;;9.10;3.50;;;16.30;99.90;;;;;;7372507;19;20045;-58
2023/08/01 08:21:50;;;;;;;10.15;2.88;;;16.20;99.90;;;;;;7364732;19;20482;-59
2023/08/01 08:24:16;;;;;;;9.02;2.92;;;16.20;99.90;;;;;;7375012;19;20500;-59
2023/08/01 08:26:42;;;;;;;8.15;3.08;;;16.10;99.90;;;;;;7377407;19;20038;-58
2023/08/01 08:29:09;;;;;;;6.70;3.03;;;15.80;99.90;;;;;;7375183;19;20493;-58
2023/08/01 08:31:35;;;;;;;7.32;2.88;;;15.80;99.90;;;;;;7372730;19;20468;-59
2023/08/01 08:34:02;;;;;;;10.10;3.38;;;15.60;99.90;;;;;;7377171;19;20030;-65
2023/08/01 08:36:28;;;;;;;11.05;4.18;;;15.50;99.90;;;;;;7371729;19;20033;-66
2023/08/01 08:38:55;;;;;;;9.60;3.22;;;15.50;99.90;;;;;;7377227;19;20018;-65
2023/08/01 08:41:25;;;;;;;10.73;3.47;;;15.50;99.90;;;;;;7374600;19;20056;-66
2023/08/01 08:43:56;;;;;;;9.02;3.58;;;15.50;99.90;;;;;;7371648;19;20031;-65
2023/08/01 08:46:27;;;;;;;10.38;3.67;;;15.60;99.90;;;;;;7375235;19;20492;-66
2023/08/01 08:48:56;;;;;;;9.40;3.63;;;15.70;99.90;;;;;;7375378;19;20366;-58
2023/08/01 08:51:25;;;;;;;12.10;4.65;;;15.60;99.90;;;;;;7374900;19;20355;-58
2023/08/01 08:53:54;;;;;;;9.95;3.88;;;15.70;99.90;;;;;;7373691;19;20383;-59
2023/08/01 08:56:20;;;;;;;7.53;3.72;;;15.70;99.90;;;;;;7377227;19;20037;-58
2023/08/01 08:58:47;;;;;;;12.32;4.72;;;15.70;99.90;;;;;;7376542;19;20084;-59
2023/08/01 09:01:14;;;;;;;14.63;3.88;;;15.60;99.90;;;;;;7375816;19;20018;-59
2023/08/01 09:03:40;;;;;;;10.63;3.80;;;15.60;99.90;;;;;;7376684;19;20018;-60
2023/08/01 09:06:18;;;;;;;9.20;4.43;;;15.60;99.90;;;;;;7375294;19;20018;-59
2023/08/01 09:08:51;;;;;;;10.13;4.35;;;15.60;99.90;;;;;;7376081;19;20489;-59
2023/08/01 09:11:18;;;;;;;12.05;4.90;;;15.70;99.90;;;;;;7373164;19;20486;-58
2023/08/01 09:13:44;;;;;;;14.13;5.30;;;15.80;99.90;;;;;;7376465;19;20019;-66
2023/08/01 09:16:12;;;;;;;11.20;4.95;;;15.90;99.90;;;;;;7372511;19;20672;-59
2023/08/01 09:18:49;;;;;;;10.55;4.65;;;15.90;99.90;;;;;;7374929;19;20135;-66
2023/08/01 09:21:18;;;;;;;12.75;5.68;;;15.90;99.90;;;;;;7370007;19;20014;-66
2023/08/01 09:23:45;;;;;;;13.45;5.30;;;15.90;99.90;;;;;;7374474;19;20014;-67
2023/08/01 09:26:19;;;;;;;15.40;5.97;;;15.90;99.90;;;;;;7374978;19;20082;-67
2023/08/01 09:28:58;;;;;;;10.02;4.53;;;15.80;99.90;;;;;;7375446;19;20011;-67
2023/08/01 09:31:29;;;;;;;11.27;4.57;;;15.80;99.90;;;;;;7372009;19;20014;-67
2023/08/01 09:33:56;;;;;;;11.30;4.78;;;15.70;99.90;;;;;;7373089;19;20006;-66
2023/08/01 09:36:23;;;;;;;10.75;4.57;;;15.70;99.90;;;;;;7374764;19;20018;-66
2023/08/01 09:39:16;;;;;;;7.50;3.67;;;15.60;99.90;;;;;;7373803;19;20014;-67
2023/08/01 09:41:59;;;;;;;9.95;3.88;;;15.60;99.90;;;;;;7372822;19;20019;-67
2023/08/01 09:44:27;;;;;;;9.32;3.42;;;15.60;99.90;;;;;;7368532;19;20022;-66
2023/08/01 09:47:02;;;;;;;7.97;3.67;;;15.60;99.90;;;;;;7375755;19;20014;-66
2023/08/01 09:49:30;;;;;;;8.80;4.07;;;15.80;99.90;;;;;;7372278;19;20015;-66
2023/08/01 09:51:57;;;;;;;7.05;3.05;;;16.30;99.90;;;;;;7371564;19;20057;-66
2023/08/01 09:54:23;;;;;;;9.98;3.80;;;16.80;99.90;;;;;;7374113;19;20441;-58
2023/08/01 09:56:51;;;;;;;9.40;3.60;;;17.00;99.90;;;;;;7375780;19;20014;-59
2023/08/01 09:59:24;;;;;;;7.80;3.05;;;17.10;99.90;;;;;;7374755;19;20018;-59
2023/08/01 10:01:52;;;;;;;6.90;2.60;;;17.30;99.90;;;;;;7369826;19;20018;-59
2023/08/01 10:04:25;;;;;;;6.03;2.50;;;17.50;99.90;;;;;;7372552;19;20038;-59
2023/08/01 10:06:58;;;;;;;7.18;2.38;;;17.60;99.90;;;;;;7376863;19;20011;-59
2023/08/01 10:09:25;;;;;;;6.50;2.35;;;17.90;99.90;;;;;;7370003;19;20442;-59
2023/08/01 10:11:52;;;;;;;4.65;2.03;;;18.20;99.90;;;;;;7375033;19;20507;-60
2023/08/01 10:14:20;;;;;;;3.85;1.60;;;18.20;99.90;;;;;;7374296;19;20018;-59
2023/08/01 10:16:47;;;;;;;6.43;2.00;;;18.20;99.90;;;;;;7372650;19;20481;-59
2023/08/01 10:19:14;;;;;;;8.02;1.80;;;18.20;99.90;;;;;;7371396;19;20494;-59
2023/08/01 10:21:42;;;;;;;5.47;2.08;;;18.30;99.90;;;;;;7366814;19;20015;-60
2023/08/01 10:24:11;;;;;;;4.18;1.92;;;18.00;99.90;;;;;;7368645;19;20049;-59
2023/08/01 10:26:37;;;;;;;4.10;1.85;;;17.90;99.90;;;;;;7378165;19;20018;-59
2023/08/01 10:29:03;;;;;;;6.13;1.73;;;17.70;99.90;;;;;;7382887;19;20522;-59
2023/08/01 10:31:30;;;;;;;7.03;2.17;;;17.70;99.90;;;;;;7378692;19;20622;-59
2023/08/01 10:34:12;;;;;;;5.40;2.15;;;17.50;99.90;;;;;;7380782;19;20508;-61
2023/08/01 10:36:38;;;;;;;9.40;2.50;;;17.20;99.90;;;;;;7379687;19;20505;-60
2023/08/01 10:39:05;;;;;;;4.90;2.53;;;17.20;99.90;;;;;;7378856;19;20552;-60
2023/08/01 10:41:36;;;;;;;9.32;2.70;;;17.30;99.90;;;;;;7375434;19;20010;-60
2023/08/01 10:44:21;;;;;;;10.65;3.00;;;17.20;99.90;;;;;;7380010;19;20017;-59
2023/08/01 10:46:53;;;;;;;6.30;2.78;;;17.30;99.90;;;;;;7378713;19;20021;-60
2023/08/01 10:49:23;;;;;;;9.93;3.22;;;17.30;99.90;;;;;;7379259;19;20496;-60
2023/08/01 10:51:50;;;;;;;9.43;3.30;;;17.20;99.90;;;;;;7380880;19;20022;-66
2023/08/01 10:54:24;;;;;;;7.57;3.00;;;17.30;99.90;;;;;;7376594;19;20021;-59
2023/08/01 10:56:58;;;;;;;7.97;2.90;;;17.50;99.90;;;;;;7379405;19;20082;-60
2023/08/01 10:59:24;;;;;;;9.52;2.90;;;17.60;99.90;;;;;;7379354;19;20015;-59
2023/08/01 11:01:52;;;;;;;10.43;3.28;;;17.70;99.90;;;;;;7379999;19;20030;-59
2023/08/01 11:04:21;;;;;;;11.32;3.33;;;17.60;99.90;;;;;;7375026;19;20047;-59
2023/08/01 11:06:50;;;;;;;6.80;2.83;;;17.30;99.90;;;;;;7380572;19;20011;-60
2023/08/01 11:09:18;;;;;;;10.25;3.03;;;17.10;99.90;;;;;;7379032;19;20026;-62
2023/08/01 11:11:47;;;;;;;7.18;2.90;;;17.20;99.90;;;;;;7379058;19;20057;-59
2023/08/01 11:14:13;;;;;;;9.35;3.30;;;17.70;99.90;;;;;;7380024;19;20078;-60
2023/08/01 11:16:40;;;;;;;9.13;3.63;;;18.80;99.90;;;;;;7378928;19;20010;-59
2023/08/01 11:19:17;;;;;;;10.05;2.58;;;19.60;99.90;;;;;;7379471;19;20011;-60
2023/08/01 11:21:43;;;;;;;10.73;2.13;;;19.80;99.90;;;;;;7374526;19;20090;-59
2023/08/01 11:24:10;;;;;;;9.85;2.60;;;19.60;99.90;;;;;;7377022;19;20014;-60
2023/08/01 11:26:39;;;;;;;7.25;2.38;;;19.40;99.90;;;;;;7378927;19;20017;-59
2023/08/01 11:29:06;;;;;;;8.15;3.03;;;18.90;99.90;;;;;;7377256;19;20022;-60
2023/08/01 11:31:32;;;;;;;13.82;3.88;;;18.10;99.90;;;;;;7376441;19;20494;-61
2023/08/01 11:33:58;;;;;;;8.40;3.25;;;17.30;99.90;;;;;;7377957;19;20451;-60
2023/08/01 11:36:27;;;;;;;10.57;3.53;;;17.00;99.90;;;;;;7375392;19;20470;-60
2023/08/01 11:38:58;;;;;;;10.15;3.17;;;16.90;99.90;;;;;;7378853;19;20026;-60
2023/08/01 11:41:26;;;;;;;13.47;3.57;;;16.90;99.90;;;;;;7372920;19;20057;-60
2023/08/01 11:43:54;;;;;;;9.85;3.50;;;16.60;99.90;;;;;;7372806;19;20279;-60
2023/08/01 11:46:31;;;;;;;9.30;3.63;;;16.60;99.90;;;;;;7374056;19;20025;-60
2023/08/01 11:48:58;;;;;;;6.88;2.65;;;16.90;99.90;;;;;;7372518;19;20018;-59
2023/08/01 11:51:28;;;;;;;6.63;2.08;;;17.20;99.90;;;;;;7376423;19;20025;-59
2023/08/01 11:54:02;;;;;;;5.22;2.30;;;17.80;99.90;;;;;;7376510;19;20490;-59
2023/08/01 11:56:29;;;;;;;6.80;2.75;;;17.90;99.90;;;;;;7377286;19;20003;-60
2023/08/01 11:58:56;;;;;;;8.82;2.63;;;17.80;99.90;;;;;;7377320;19;20046;-59
2023/08/01 12:01:23;;;;;;;6.82;2.58;;;17.60;99.90;;;;;;7362763;19;20430;-60
2023/08/01 12:03:51;;;;;;;4.57;1.73;;;17.30;99.90;;;;;;7369821;19;20366;-61
2023/08/01 12:06:19;;;;;;;57.63;51.65;;;17.00;99.90;;;;;;7374382;19;20540;-63
2023/08/01 12:08:47;;;;;;;13.02;10.80;;;17.10;99.90;;;;;;7375557;19;20122;-63
2023/08/01 12:11:24;;;;;;;14.57;11.02;;;17.30;99.90;;;;;;7373992;19;20022;-63
2023/08/01 12:14:18;;;;;;;13.00;7.47;;;17.70;99.90;;;;;;7373138;19;20025;-63
2023/08/01 12:16:46;;;;;;;10.18;6.75;;;17.80;99.90;;;;;;7372744;19;20022;-62
2023/08/01 12:19:22;;;;;;;5.97;2.15;;;18.30;99.90;;;;;;7372629;19;20014;-63
2023/08/01 12:21:49;;;;;;;13.15;2.40;;;18.70;99.90;;;;;;7371463;19;22031;-64
2023/08/01 12:24:15;;;;;;;6.93;2.10;;;18.90;99.90;;;;;;7371524;19;20015;-63
2023/08/01 12:26:41;;;;;;;7.80;2.80;;;19.00;99.90;;;;;;7375354;19;20017;-64
2023/08/01 12:29:08;;;;;;;17.40;13.25;;;19.00;99.90;;;;;;7373595;19;20054;-66
2023/08/01 12:31:34;;;;;;;10.80;4.00;;;19.60;99.90;;;;;;7371511;19;20015;-64
2023/08/01 12:34:00;;;;;;;7.10;3.03;;;19.90;99.90;;;;;;7375852;19;20371;-70
2023/08/01 12:36:27;;;;;;;20.92;16.08;;;19.70;99.90;;;;;;7377618;19;20028;-64
2023/08/01 12:38:53;;;;;;;7.40;2.67;;;19.40;99.90;;;;;;7374318;19;20490;-65
2023/08/01 12:41:19;;;;;;;19.25;14.65;;;18.80;99.90;;;;;;7373455;19;20479;-64